<?xml version="1.0" encoding="UTF-8" standalone="no" ?>
<gpx xmlns="http://www.topografix.com/GPX/1/1" xmlns:xsi="http://www.w3.org/2001/XMLSchema-instance" xsi:schemaLocation="http://www.topografix.com/GPX/1/1 http://www.topografix.com/GPX/1/1/gpx.xsd" version="1.1" creator="VisuGPX - https://www.visugpx.com">
  <metadata>
    <name>Roche Blanche en circuit</name>
  </metadata>
  <wpt lat="46.48328" lon="6.06141">
    <ele>1117</ele>
    <name><![CDATA[Parking OT des Rousses]]></name>
  </wpt>
  <wpt lat="46.48421" lon="6.06019">
    <ele>1110</ele>
    <name><![CDATA[Fromagerie des Rousses]]></name>
  </wpt>
  <wpt lat="46.48873" lon="6.05197">
    <ele>1083</ele>
    <name><![CDATA[Carrefour sentier]]></name>
  </wpt>
  <wpt lat="46.50192" lon="6.05879">
    <ele>1252</ele>
    <name><![CDATA[Carrefour Roche Blanche]]></name>
  </wpt>
  <wpt lat="46.50346" lon="6.06643">
    <ele>1230</ele>
    <name><![CDATA[Combe du Ver]]></name>
  </wpt>
  <wpt lat="46.50916" lon="6.07437">
    <ele>1277</ele>
    <name><![CDATA[Carrefour GRP]]></name>
  </wpt>
  <wpt lat="46.50202" lon="6.07648">
    <ele>1165</ele>
    <name><![CDATA[Carrefour Roche Lavenna]]></name>
  </wpt>
  <wpt lat="46.50524" lon="6.08203">
    <ele>1176</ele>
    <name><![CDATA[Carrefour PR - GRP]]></name>
  </wpt>
  <wpt lat="46.49593" lon="6.0728">
    <ele>1068</ele>
    <name><![CDATA[Carrefour D29E2 - GRP]]></name>
  </wpt>
  <wpt lat="46.4833" lon="6.06137">
    <ele>1117</ele>
    <name><![CDATA[Parking OT des Rousses]]></name>
  </wpt>
  <trk>
    <name><![CDATA[Roche Blanche en circuit]]></name>
    <trkseg>
      <trkpt lat="46.48328" lon="6.06141">
        <ele>1117</ele>
        <time>2021-02-23T13:19:54+01:00</time>
      </trkpt>
      <trkpt lat="46.48355" lon="6.06109">
        <ele>1116</ele>
        <time>2021-02-23T13:19:59+01:00</time>
      </trkpt>
      <trkpt lat="46.48395" lon="6.06046">
        <ele>1113</ele>
        <time>2021-02-23T13:20:04+01:00</time>
      </trkpt>
      <trkpt lat="46.48421" lon="6.06019">
        <ele>1110</ele>
        <time>2021-02-23T13:20:09+01:00</time>
      </trkpt>
      <trkpt lat="46.48476" lon="6.06018">
        <ele>1110</ele>
        <time>2021-02-23T13:20:14+01:00</time>
      </trkpt>
      <trkpt lat="46.4852" lon="6.06021">
        <ele>1111</ele>
        <time>2021-02-23T13:20:19+01:00</time>
      </trkpt>
      <trkpt lat="46.4856" lon="6.06031">
        <ele>1113</ele>
        <time>2021-02-23T13:20:24+01:00</time>
      </trkpt>
      <trkpt lat="46.48612" lon="6.06007">
        <ele>1111</ele>
        <time>2021-02-23T13:20:29+01:00</time>
      </trkpt>
      <trkpt lat="46.48653" lon="6.06036">
        <ele>1109</ele>
        <time>2021-02-23T13:20:34+01:00</time>
      </trkpt>
      <trkpt lat="46.48666" lon="6.05967">
        <ele>1103</ele>
        <time>2021-02-23T13:20:39+01:00</time>
      </trkpt>
      <trkpt lat="46.48703" lon="6.05898">
        <ele>1092</ele>
        <time>2021-02-23T13:20:44+01:00</time>
      </trkpt>
      <trkpt lat="46.48764" lon="6.05932">
        <ele>1086</ele>
        <time>2021-02-23T13:20:49+01:00</time>
      </trkpt>
      <trkpt lat="46.4881" lon="6.05935">
        <ele>1087</ele>
        <time>2021-02-23T13:20:54+01:00</time>
      </trkpt>
      <trkpt lat="46.48829" lon="6.05874">
        <ele>1085</ele>
        <time>2021-02-23T13:20:59+01:00</time>
      </trkpt>
      <trkpt lat="46.4886" lon="6.05826">
        <ele>1087</ele>
        <time>2021-02-23T13:21:04+01:00</time>
      </trkpt>
      <trkpt lat="46.48862" lon="6.0576">
        <ele>1084</ele>
        <time>2021-02-23T13:21:09+01:00</time>
      </trkpt>
      <trkpt lat="46.48877" lon="6.05697">
        <ele>1086</ele>
        <time>2021-02-23T13:21:14+01:00</time>
      </trkpt>
      <trkpt lat="46.48866" lon="6.05633">
        <ele>1087</ele>
        <time>2021-02-23T13:21:19+01:00</time>
      </trkpt>
      <trkpt lat="46.48847" lon="6.05573">
        <ele>1086</ele>
        <time>2021-02-23T13:21:24+01:00</time>
      </trkpt>
      <trkpt lat="46.48829" lon="6.05512">
        <ele>1085</ele>
        <time>2021-02-23T13:21:29+01:00</time>
      </trkpt>
      <trkpt lat="46.48847" lon="6.05452">
        <ele>1087</ele>
        <time>2021-02-23T13:21:34+01:00</time>
      </trkpt>
      <trkpt lat="46.48858" lon="6.05387">
        <ele>1087</ele>
        <time>2021-02-23T13:21:39+01:00</time>
      </trkpt>
      <trkpt lat="46.48878" lon="6.05328">
        <ele>1089</ele>
        <time>2021-02-23T13:21:44+01:00</time>
      </trkpt>
      <trkpt lat="46.48881" lon="6.05263">
        <ele>1089</ele>
        <time>2021-02-23T13:21:49+01:00</time>
      </trkpt>
      <trkpt lat="46.48873" lon="6.05197">
        <ele>1083</ele>
        <time>2021-02-23T13:21:54+01:00</time>
      </trkpt>
      <trkpt lat="46.48891" lon="6.05136">
        <ele>1082</ele>
        <time>2021-02-23T13:21:59+01:00</time>
      </trkpt>
      <trkpt lat="46.48928" lon="6.05098">
        <ele>1086</ele>
        <time>2021-02-23T13:22:04+01:00</time>
      </trkpt>
      <trkpt lat="46.48929" lon="6.05152">
        <ele>1095</ele>
        <time>2021-02-23T13:22:09+01:00</time>
      </trkpt>
      <trkpt lat="46.48962" lon="6.05184">
        <ele>1108</ele>
        <time>2021-02-23T13:22:14+01:00</time>
      </trkpt>
      <trkpt lat="46.49002" lon="6.05215">
        <ele>1123</ele>
        <time>2021-02-23T13:22:19+01:00</time>
      </trkpt>
      <trkpt lat="46.49026" lon="6.05271">
        <ele>1129</ele>
        <time>2021-02-23T13:22:24+01:00</time>
      </trkpt>
      <trkpt lat="46.4907" lon="6.05287">
        <ele>1137</ele>
        <time>2021-02-23T13:22:29+01:00</time>
      </trkpt>
      <trkpt lat="46.491" lon="6.05238">
        <ele>1142</ele>
        <time>2021-02-23T13:22:34+01:00</time>
      </trkpt>
      <trkpt lat="46.49131" lon="6.05191">
        <ele>1146</ele>
        <time>2021-02-23T13:22:39+01:00</time>
      </trkpt>
      <trkpt lat="46.49176" lon="6.0518">
        <ele>1152</ele>
        <time>2021-02-23T13:22:44+01:00</time>
      </trkpt>
      <trkpt lat="46.49218" lon="6.05155">
        <ele>1154</ele>
        <time>2021-02-23T13:22:49+01:00</time>
      </trkpt>
      <trkpt lat="46.49261" lon="6.05175">
        <ele>1159</ele>
        <time>2021-02-23T13:22:54+01:00</time>
      </trkpt>
      <trkpt lat="46.49282" lon="6.05233">
        <ele>1162</ele>
        <time>2021-02-23T13:22:59+01:00</time>
      </trkpt>
      <trkpt lat="46.49297" lon="6.05295">
        <ele>1166</ele>
        <time>2021-02-23T13:23:04+01:00</time>
      </trkpt>
      <trkpt lat="46.49309" lon="6.05358">
        <ele>1168</ele>
        <time>2021-02-23T13:23:09+01:00</time>
      </trkpt>
      <trkpt lat="46.4934" lon="6.05406">
        <ele>1173</ele>
        <time>2021-02-23T13:23:14+01:00</time>
      </trkpt>
      <trkpt lat="46.49368" lon="6.05458">
        <ele>1178</ele>
        <time>2021-02-23T13:23:19+01:00</time>
      </trkpt>
      <trkpt lat="46.49407" lon="6.05492">
        <ele>1183</ele>
        <time>2021-02-23T13:23:24+01:00</time>
      </trkpt>
      <trkpt lat="46.49444" lon="6.0553">
        <ele>1187</ele>
        <time>2021-02-23T13:23:29+01:00</time>
      </trkpt>
      <trkpt lat="46.49483" lon="6.05523">
        <ele>1192</ele>
        <time>2021-02-23T13:23:34+01:00</time>
      </trkpt>
      <trkpt lat="46.4952" lon="6.05586">
        <ele>1198</ele>
        <time>2021-02-23T13:23:39+01:00</time>
      </trkpt>
      <trkpt lat="46.49556" lon="6.05625">
        <ele>1202</ele>
        <time>2021-02-23T13:23:44+01:00</time>
      </trkpt>
      <trkpt lat="46.49598" lon="6.05648">
        <ele>1205</ele>
        <time>2021-02-23T13:23:49+01:00</time>
      </trkpt>
      <trkpt lat="46.49636" lon="6.05684">
        <ele>1208</ele>
        <time>2021-02-23T13:23:54+01:00</time>
      </trkpt>
      <trkpt lat="46.49673" lon="6.05723">
        <ele>1210</ele>
        <time>2021-02-23T13:23:59+01:00</time>
      </trkpt>
      <trkpt lat="46.49717" lon="6.05739">
        <ele>1215</ele>
        <time>2021-02-23T13:24:04+01:00</time>
      </trkpt>
      <trkpt lat="46.49751" lon="6.05783">
        <ele>1219</ele>
        <time>2021-02-23T13:24:09+01:00</time>
      </trkpt>
      <trkpt lat="46.49791" lon="6.05813">
        <ele>1223</ele>
        <time>2021-02-23T13:24:14+01:00</time>
      </trkpt>
      <trkpt lat="46.49836" lon="6.05829">
        <ele>1228</ele>
        <time>2021-02-23T13:24:19+01:00</time>
      </trkpt>
      <trkpt lat="46.49879" lon="6.05809">
        <ele>1228</ele>
        <time>2021-02-23T13:24:24+01:00</time>
      </trkpt>
      <trkpt lat="46.49925" lon="6.05816">
        <ele>1230</ele>
        <time>2021-02-23T13:24:29+01:00</time>
      </trkpt>
      <trkpt lat="46.49969" lon="6.05828">
        <ele>1230</ele>
        <time>2021-02-23T13:24:34+01:00</time>
      </trkpt>
      <trkpt lat="46.50012" lon="6.0585">
        <ele>1231</ele>
        <time>2021-02-23T13:24:39+01:00</time>
      </trkpt>
      <trkpt lat="46.50053" lon="6.05877">
        <ele>1235</ele>
        <time>2021-02-23T13:24:44+01:00</time>
      </trkpt>
      <trkpt lat="46.50095" lon="6.05903">
        <ele>1237</ele>
        <time>2021-02-23T13:24:49+01:00</time>
      </trkpt>
      <trkpt lat="46.50123" lon="6.05909">
        <ele>1241</ele>
        <time>2021-02-23T13:24:54+01:00</time>
      </trkpt>
      <trkpt lat="46.50192" lon="6.05879">
        <ele>1252</ele>
        <time>2021-02-23T13:24:59+01:00</time>
      </trkpt>
      <trkpt lat="46.50108" lon="6.05776">
        <ele>1248</ele>
        <time>2021-02-23T13:25:04+01:00</time>
      </trkpt>
      <trkpt lat="46.50067" lon="6.05731">
        <ele>1245</ele>
        <time>2021-02-23T13:25:09+01:00</time>
      </trkpt>
      <trkpt lat="46.5004" lon="6.05677">
        <ele>1247</ele>
        <time>2021-02-23T13:25:14+01:00</time>
      </trkpt>
      <trkpt lat="46.50008" lon="6.05624">
        <ele>1248</ele>
        <time>2021-02-23T13:25:19+01:00</time>
      </trkpt>
      <trkpt lat="46.49969" lon="6.05596">
        <ele>1247</ele>
        <time>2021-02-23T13:25:24+01:00</time>
      </trkpt>
      <trkpt lat="46.49927" lon="6.05581">
        <ele>1243</ele>
        <time>2021-02-23T13:25:29+01:00</time>
      </trkpt>
      <trkpt lat="46.49931" lon="6.05533">
        <ele>1247</ele>
        <time>2021-02-23T13:25:34+01:00</time>
      </trkpt>
      <trkpt lat="46.49902" lon="6.05483">
        <ele>1246</ele>
        <time>2021-02-23T13:25:39+01:00</time>
      </trkpt>
      <trkpt lat="46.49859" lon="6.05423">
        <ele>1241</ele>
        <time>2021-02-23T13:25:44+01:00</time>
      </trkpt>
      <trkpt lat="46.49842" lon="6.05362">
        <ele>1240</ele>
        <time>2021-02-23T13:25:49+01:00</time>
      </trkpt>
      <trkpt lat="46.49817" lon="6.05306">
        <ele>1236</ele>
        <time>2021-02-23T13:25:54+01:00</time>
      </trkpt>
      <trkpt lat="46.49828" lon="6.05252">
        <ele>1242</ele>
        <time>2021-02-23T13:25:59+01:00</time>
      </trkpt>
      <trkpt lat="46.49814" lon="6.05203">
        <ele>1239</ele>
        <time>2021-02-23T13:26:04+01:00</time>
      </trkpt>
      <trkpt lat="46.49758" lon="6.05205">
        <ele>1220</ele>
        <time>2021-02-23T13:26:09+01:00</time>
      </trkpt>
      <trkpt lat="46.49724" lon="6.05177">
        <ele>1196</ele>
        <time>2021-02-23T13:26:14+01:00</time>
      </trkpt>
      <trkpt lat="46.49761" lon="6.05207">
        <ele>1221</ele>
        <time>2021-02-23T13:26:19+01:00</time>
      </trkpt>
      <trkpt lat="46.49814" lon="6.05205">
        <ele>1239</ele>
        <time>2021-02-23T13:26:24+01:00</time>
      </trkpt>
      <trkpt lat="46.49825" lon="6.05252">
        <ele>1241</ele>
        <time>2021-02-23T13:26:29+01:00</time>
      </trkpt>
      <trkpt lat="46.49817" lon="6.05302">
        <ele>1236</ele>
        <time>2021-02-23T13:26:34+01:00</time>
      </trkpt>
      <trkpt lat="46.49825" lon="6.05334">
        <ele>1236</ele>
        <time>2021-02-23T13:26:39+01:00</time>
      </trkpt>
      <trkpt lat="46.49848" lon="6.05392">
        <ele>1240</ele>
        <time>2021-02-23T13:26:44+01:00</time>
      </trkpt>
      <trkpt lat="46.49879" lon="6.05454">
        <ele>1243</ele>
        <time>2021-02-23T13:26:49+01:00</time>
      </trkpt>
      <trkpt lat="46.4993" lon="6.05531">
        <ele>1247</ele>
        <time>2021-02-23T13:26:54+01:00</time>
      </trkpt>
      <trkpt lat="46.49927" lon="6.05585">
        <ele>1243</ele>
        <time>2021-02-23T13:26:59+01:00</time>
      </trkpt>
      <trkpt lat="46.49967" lon="6.056">
        <ele>1246</ele>
        <time>2021-02-23T13:27:04+01:00</time>
      </trkpt>
      <trkpt lat="46.50007" lon="6.05631">
        <ele>1248</ele>
        <time>2021-02-23T13:27:09+01:00</time>
      </trkpt>
      <trkpt lat="46.5004" lon="6.05678">
        <ele>1246</ele>
        <time>2021-02-23T13:27:14+01:00</time>
      </trkpt>
      <trkpt lat="46.50064" lon="6.05735">
        <ele>1245</ele>
        <time>2021-02-23T13:27:19+01:00</time>
      </trkpt>
      <trkpt lat="46.50111" lon="6.05774">
        <ele>1248</ele>
        <time>2021-02-23T13:27:24+01:00</time>
      </trkpt>
      <trkpt lat="46.50157" lon="6.05839">
        <ele>1249</ele>
        <time>2021-02-23T13:27:29+01:00</time>
      </trkpt>
      <trkpt lat="46.50193" lon="6.05879">
        <ele>1252</ele>
        <time>2021-02-23T13:27:34+01:00</time>
      </trkpt>
      <trkpt lat="46.50211" lon="6.05939">
        <ele>1252</ele>
        <time>2021-02-23T13:27:39+01:00</time>
      </trkpt>
      <trkpt lat="46.50256" lon="6.05956">
        <ele>1256</ele>
        <time>2021-02-23T13:27:44+01:00</time>
      </trkpt>
      <trkpt lat="46.50284" lon="6.0598">
        <ele>1259</ele>
        <time>2021-02-23T13:27:49+01:00</time>
      </trkpt>
      <trkpt lat="46.50283" lon="6.06036">
        <ele>1258</ele>
        <time>2021-02-23T13:27:54+01:00</time>
      </trkpt>
      <trkpt lat="46.50322" lon="6.06115">
        <ele>1259</ele>
        <time>2021-02-23T13:27:59+01:00</time>
      </trkpt>
      <trkpt lat="46.50365" lon="6.06188">
        <ele>1256</ele>
        <time>2021-02-23T13:28:04+01:00</time>
      </trkpt>
      <trkpt lat="46.50395" lon="6.06231">
        <ele>1252</ele>
        <time>2021-02-23T13:28:09+01:00</time>
      </trkpt>
      <trkpt lat="46.50414" lon="6.06282">
        <ele>1248</ele>
        <time>2021-02-23T13:28:14+01:00</time>
      </trkpt>
      <trkpt lat="46.50409" lon="6.06347">
        <ele>1246</ele>
        <time>2021-02-23T13:28:19+01:00</time>
      </trkpt>
      <trkpt lat="46.50373" lon="6.0639">
        <ele>1243</ele>
        <time>2021-02-23T13:28:24+01:00</time>
      </trkpt>
      <trkpt lat="46.50327" lon="6.06387">
        <ele>1242</ele>
        <time>2021-02-23T13:28:29+01:00</time>
      </trkpt>
      <trkpt lat="46.50284" lon="6.06408">
        <ele>1242</ele>
        <time>2021-02-23T13:28:34+01:00</time>
      </trkpt>
      <trkpt lat="46.50299" lon="6.06471">
        <ele>1239</ele>
        <time>2021-02-23T13:28:39+01:00</time>
      </trkpt>
      <trkpt lat="46.50321" lon="6.06529">
        <ele>1236</ele>
        <time>2021-02-23T13:28:44+01:00</time>
      </trkpt>
      <trkpt lat="46.50338" lon="6.0659">
        <ele>1232</ele>
        <time>2021-02-23T13:28:49+01:00</time>
      </trkpt>
      <trkpt lat="46.50346" lon="6.06643">
        <ele>1230</ele>
        <time>2021-02-23T13:28:54+01:00</time>
      </trkpt>
      <trkpt lat="46.50399" lon="6.06682">
        <ele>1233</ele>
        <time>2021-02-23T13:28:59+01:00</time>
      </trkpt>
      <trkpt lat="46.50438" lon="6.06714">
        <ele>1238</ele>
        <time>2021-02-23T13:29:04+01:00</time>
      </trkpt>
      <trkpt lat="46.50478" lon="6.06748">
        <ele>1238</ele>
        <time>2021-02-23T13:29:09+01:00</time>
      </trkpt>
      <trkpt lat="46.5052" lon="6.06772">
        <ele>1239</ele>
        <time>2021-02-23T13:29:14+01:00</time>
      </trkpt>
      <trkpt lat="46.50552" lon="6.0682">
        <ele>1240</ele>
        <time>2021-02-23T13:29:19+01:00</time>
      </trkpt>
      <trkpt lat="46.50579" lon="6.06873">
        <ele>1241</ele>
        <time>2021-02-23T13:29:24+01:00</time>
      </trkpt>
      <trkpt lat="46.50602" lon="6.06929">
        <ele>1244</ele>
        <time>2021-02-23T13:29:29+01:00</time>
      </trkpt>
      <trkpt lat="46.50625" lon="6.06992">
        <ele>1247</ele>
        <time>2021-02-23T13:29:34+01:00</time>
      </trkpt>
      <trkpt lat="46.50663" lon="6.0703">
        <ele>1250</ele>
        <time>2021-02-23T13:29:39+01:00</time>
      </trkpt>
      <trkpt lat="46.50702" lon="6.07063">
        <ele>1257</ele>
        <time>2021-02-23T13:29:44+01:00</time>
      </trkpt>
      <trkpt lat="46.5073" lon="6.07113">
        <ele>1262</ele>
        <time>2021-02-23T13:29:49+01:00</time>
      </trkpt>
      <trkpt lat="46.50752" lon="6.07166">
        <ele>1265</ele>
        <time>2021-02-23T13:29:54+01:00</time>
      </trkpt>
      <trkpt lat="46.50786" lon="6.07235">
        <ele>1268</ele>
        <time>2021-02-23T13:29:59+01:00</time>
      </trkpt>
      <trkpt lat="46.50825" lon="6.07269">
        <ele>1267</ele>
        <time>2021-02-23T13:30:04+01:00</time>
      </trkpt>
      <trkpt lat="46.5089" lon="6.07383">
        <ele>1273</ele>
        <time>2021-02-23T13:30:09+01:00</time>
      </trkpt>
      <trkpt lat="46.50916" lon="6.07437">
        <ele>1277</ele>
        <time>2021-02-23T13:30:14+01:00</time>
      </trkpt>
      <trkpt lat="46.50867" lon="6.07443">
        <ele>1275</ele>
        <time>2021-02-23T13:30:19+01:00</time>
      </trkpt>
      <trkpt lat="46.50893" lon="6.07501">
        <ele>1278</ele>
        <time>2021-02-23T13:30:24+01:00</time>
      </trkpt>
      <trkpt lat="46.50879" lon="6.07565">
        <ele>1280</ele>
        <time>2021-02-23T13:30:29+01:00</time>
      </trkpt>
      <trkpt lat="46.5085" lon="6.07615">
        <ele>1279</ele>
        <time>2021-02-23T13:30:34+01:00</time>
      </trkpt>
      <trkpt lat="46.50804" lon="6.07614">
        <ele>1273</ele>
        <time>2021-02-23T13:30:39+01:00</time>
      </trkpt>
      <trkpt lat="46.50759" lon="6.07618">
        <ele>1266</ele>
        <time>2021-02-23T13:30:44+01:00</time>
      </trkpt>
      <trkpt lat="46.50714" lon="6.07624">
        <ele>1257</ele>
        <time>2021-02-23T13:30:49+01:00</time>
      </trkpt>
      <trkpt lat="46.50669" lon="6.07628">
        <ele>1248</ele>
        <time>2021-02-23T13:30:54+01:00</time>
      </trkpt>
      <trkpt lat="46.50614" lon="6.07634">
        <ele>1238</ele>
        <time>2021-02-23T13:30:59+01:00</time>
      </trkpt>
      <trkpt lat="46.50568" lon="6.07633">
        <ele>1230</ele>
        <time>2021-02-23T13:31:04+01:00</time>
      </trkpt>
      <trkpt lat="46.50522" lon="6.07637">
        <ele>1222</ele>
        <time>2021-02-23T13:31:09+01:00</time>
      </trkpt>
      <trkpt lat="46.50477" lon="6.07642">
        <ele>1213</ele>
        <time>2021-02-23T13:31:14+01:00</time>
      </trkpt>
      <trkpt lat="46.50429" lon="6.07643">
        <ele>1204</ele>
        <time>2021-02-23T13:31:19+01:00</time>
      </trkpt>
      <trkpt lat="46.50383" lon="6.07646">
        <ele>1196</ele>
        <time>2021-02-23T13:31:24+01:00</time>
      </trkpt>
      <trkpt lat="46.50338" lon="6.07653">
        <ele>1189</ele>
        <time>2021-02-23T13:31:29+01:00</time>
      </trkpt>
      <trkpt lat="46.50293" lon="6.0765">
        <ele>1182</ele>
        <time>2021-02-23T13:31:34+01:00</time>
      </trkpt>
      <trkpt lat="46.50247" lon="6.07649">
        <ele>1174</ele>
        <time>2021-02-23T13:31:39+01:00</time>
      </trkpt>
      <trkpt lat="46.50202" lon="6.07648">
        <ele>1165</ele>
        <time>2021-02-23T13:31:44+01:00</time>
      </trkpt>
      <trkpt lat="46.50233" lon="6.07696">
        <ele>1167</ele>
        <time>2021-02-23T13:31:49+01:00</time>
      </trkpt>
      <trkpt lat="46.50257" lon="6.07722">
        <ele>1170</ele>
        <time>2021-02-23T13:31:54+01:00</time>
      </trkpt>
      <trkpt lat="46.50286" lon="6.07785">
        <ele>1170</ele>
        <time>2021-02-23T13:31:59+01:00</time>
      </trkpt>
      <trkpt lat="46.50273" lon="6.07857">
        <ele>1158</ele>
        <time>2021-02-23T13:32:04+01:00</time>
      </trkpt>
      <trkpt lat="46.50301" lon="6.07782">
        <ele>1173</ele>
        <time>2021-02-23T13:32:09+01:00</time>
      </trkpt>
      <trkpt lat="46.50351" lon="6.07791">
        <ele>1182</ele>
        <time>2021-02-23T13:32:14+01:00</time>
      </trkpt>
      <trkpt lat="46.50403" lon="6.079">
        <ele>1181</ele>
        <time>2021-02-23T13:32:19+01:00</time>
      </trkpt>
      <trkpt lat="46.50446" lon="6.07984">
        <ele>1179</ele>
        <time>2021-02-23T13:32:24+01:00</time>
      </trkpt>
      <trkpt lat="46.50462" lon="6.08059">
        <ele>1175</ele>
        <time>2021-02-23T13:32:29+01:00</time>
      </trkpt>
      <trkpt lat="46.50483" lon="6.08109">
        <ele>1175</ele>
        <time>2021-02-23T13:32:34+01:00</time>
      </trkpt>
      <trkpt lat="46.50524" lon="6.08203">
        <ele>1176</ele>
        <time>2021-02-23T13:32:39+01:00</time>
      </trkpt>
      <trkpt lat="46.50489" lon="6.08229">
        <ele>1164</ele>
        <time>2021-02-23T13:32:44+01:00</time>
      </trkpt>
      <trkpt lat="46.50404" lon="6.0816">
        <ele>1145</ele>
        <time>2021-02-23T13:32:49+01:00</time>
      </trkpt>
      <trkpt lat="46.50214" lon="6.07984">
        <ele>1107</ele>
        <time>2021-02-23T13:32:54+01:00</time>
      </trkpt>
      <trkpt lat="46.50083" lon="6.07845">
        <ele>1081</ele>
        <time>2021-02-23T13:32:59+01:00</time>
      </trkpt>
      <trkpt lat="46.50058" lon="6.07821">
        <ele>1078</ele>
        <time>2021-02-23T13:33:04+01:00</time>
      </trkpt>
      <trkpt lat="46.50058" lon="6.0789">
        <ele>1068</ele>
        <time>2021-02-23T13:33:09+01:00</time>
      </trkpt>
      <trkpt lat="46.50017" lon="6.07836">
        <ele>1061</ele>
        <time>2021-02-23T13:33:14+01:00</time>
      </trkpt>
      <trkpt lat="46.49983" lon="6.07821">
        <ele>1058</ele>
        <time>2021-02-23T13:33:19+01:00</time>
      </trkpt>
      <trkpt lat="46.49956" lon="6.07831">
        <ele>1056</ele>
        <time>2021-02-23T13:33:24+01:00</time>
      </trkpt>
      <trkpt lat="46.49911" lon="6.07836">
        <ele>1056</ele>
        <time>2021-02-23T13:33:29+01:00</time>
      </trkpt>
      <trkpt lat="46.49872" lon="6.07871">
        <ele>1056</ele>
        <time>2021-02-23T13:33:34+01:00</time>
      </trkpt>
      <trkpt lat="46.49848" lon="6.07927">
        <ele>1056</ele>
        <time>2021-02-23T13:33:39+01:00</time>
      </trkpt>
      <trkpt lat="46.49824" lon="6.07982">
        <ele>1056</ele>
        <time>2021-02-23T13:33:44+01:00</time>
      </trkpt>
      <trkpt lat="46.49801" lon="6.08038">
        <ele>1056</ele>
        <time>2021-02-23T13:33:49+01:00</time>
      </trkpt>
      <trkpt lat="46.49806" lon="6.08104">
        <ele>1056</ele>
        <time>2021-02-23T13:33:54+01:00</time>
      </trkpt>
      <trkpt lat="46.49787" lon="6.08164">
        <ele>1058</ele>
        <time>2021-02-23T13:33:59+01:00</time>
      </trkpt>
      <trkpt lat="46.49762" lon="6.08218">
        <ele>1060</ele>
        <time>2021-02-23T13:34:04+01:00</time>
      </trkpt>
      <trkpt lat="46.49727" lon="6.08177">
        <ele>1060</ele>
        <time>2021-02-23T13:34:09+01:00</time>
      </trkpt>
      <trkpt lat="46.49704" lon="6.08118">
        <ele>1061</ele>
        <time>2021-02-23T13:34:14+01:00</time>
      </trkpt>
      <trkpt lat="46.49682" lon="6.0806">
        <ele>1060</ele>
        <time>2021-02-23T13:34:19+01:00</time>
      </trkpt>
      <trkpt lat="46.49666" lon="6.07999">
        <ele>1058</ele>
        <time>2021-02-23T13:34:24+01:00</time>
      </trkpt>
      <trkpt lat="46.49647" lon="6.07938">
        <ele>1060</ele>
        <time>2021-02-23T13:34:29+01:00</time>
      </trkpt>
      <trkpt lat="46.49623" lon="6.07883">
        <ele>1060</ele>
        <time>2021-02-23T13:34:34+01:00</time>
      </trkpt>
      <trkpt lat="46.49613" lon="6.07819">
        <ele>1058</ele>
        <time>2021-02-23T13:34:39+01:00</time>
      </trkpt>
      <trkpt lat="46.49623" lon="6.07755">
        <ele>1057</ele>
        <time>2021-02-23T13:34:44+01:00</time>
      </trkpt>
      <trkpt lat="46.49625" lon="6.07688">
        <ele>1058</ele>
        <time>2021-02-23T13:34:49+01:00</time>
      </trkpt>
      <trkpt lat="46.4962" lon="6.07623">
        <ele>1059</ele>
        <time>2021-02-23T13:34:54+01:00</time>
      </trkpt>
      <trkpt lat="46.49619" lon="6.07557">
        <ele>1062</ele>
        <time>2021-02-23T13:34:59+01:00</time>
      </trkpt>
      <trkpt lat="46.49622" lon="6.0749">
        <ele>1064</ele>
        <time>2021-02-23T13:35:04+01:00</time>
      </trkpt>
      <trkpt lat="46.49643" lon="6.07432">
        <ele>1064</ele>
        <time>2021-02-23T13:35:09+01:00</time>
      </trkpt>
      <trkpt lat="46.49634" lon="6.07367">
        <ele>1065</ele>
        <time>2021-02-23T13:35:14+01:00</time>
      </trkpt>
      <trkpt lat="46.49593" lon="6.0728">
        <ele>1068</ele>
        <time>2021-02-23T13:35:19+01:00</time>
      </trkpt>
      <trkpt lat="46.49565" lon="6.07302">
        <ele>1070</ele>
        <time>2021-02-23T13:35:24+01:00</time>
      </trkpt>
      <trkpt lat="46.49521" lon="6.0732">
        <ele>1073</ele>
        <time>2021-02-23T13:35:29+01:00</time>
      </trkpt>
      <trkpt lat="46.49476" lon="6.07332">
        <ele>1076</ele>
        <time>2021-02-23T13:35:34+01:00</time>
      </trkpt>
      <trkpt lat="46.49427" lon="6.07347">
        <ele>1079</ele>
        <time>2021-02-23T13:35:39+01:00</time>
      </trkpt>
      <trkpt lat="46.49445" lon="6.07379">
        <ele>1078</ele>
        <time>2021-02-23T13:35:44+01:00</time>
      </trkpt>
      <trkpt lat="46.49459" lon="6.07441">
        <ele>1077</ele>
        <time>2021-02-23T13:35:49+01:00</time>
      </trkpt>
      <trkpt lat="46.49466" lon="6.07478">
        <ele>1075</ele>
        <time>2021-02-23T13:35:54+01:00</time>
      </trkpt>
      <trkpt lat="46.49434" lon="6.07496">
        <ele>1077</ele>
        <time>2021-02-23T13:35:59+01:00</time>
      </trkpt>
      <trkpt lat="46.49389" lon="6.07509">
        <ele>1080</ele>
        <time>2021-02-23T13:36:04+01:00</time>
      </trkpt>
      <trkpt lat="46.49346" lon="6.07523">
        <ele>1083</ele>
        <time>2021-02-23T13:36:09+01:00</time>
      </trkpt>
      <trkpt lat="46.49301" lon="6.0754">
        <ele>1087</ele>
        <time>2021-02-23T13:36:14+01:00</time>
      </trkpt>
      <trkpt lat="46.49257" lon="6.07553">
        <ele>1089</ele>
        <time>2021-02-23T13:36:19+01:00</time>
      </trkpt>
      <trkpt lat="46.49212" lon="6.07568">
        <ele>1093</ele>
        <time>2021-02-23T13:36:24+01:00</time>
      </trkpt>
      <trkpt lat="46.49182" lon="6.07512">
        <ele>1099</ele>
        <time>2021-02-23T13:36:29+01:00</time>
      </trkpt>
      <trkpt lat="46.49147" lon="6.07463">
        <ele>1103</ele>
        <time>2021-02-23T13:36:34+01:00</time>
      </trkpt>
      <trkpt lat="46.49117" lon="6.07415">
        <ele>1110</ele>
        <time>2021-02-23T13:36:39+01:00</time>
      </trkpt>
      <trkpt lat="46.49091" lon="6.07374">
        <ele>1118</ele>
        <time>2021-02-23T13:36:44+01:00</time>
      </trkpt>
      <trkpt lat="46.49054" lon="6.07302">
        <ele>1120</ele>
        <time>2021-02-23T13:36:49+01:00</time>
      </trkpt>
      <trkpt lat="46.49033" lon="6.07271">
        <ele>1121</ele>
        <time>2021-02-23T13:36:54+01:00</time>
      </trkpt>
      <trkpt lat="46.49006" lon="6.07217">
        <ele>1124</ele>
        <time>2021-02-23T13:36:59+01:00</time>
      </trkpt>
      <trkpt lat="46.4897" lon="6.07175">
        <ele>1125</ele>
        <time>2021-02-23T13:37:04+01:00</time>
      </trkpt>
      <trkpt lat="46.48944" lon="6.0712">
        <ele>1121</ele>
        <time>2021-02-23T13:37:09+01:00</time>
      </trkpt>
      <trkpt lat="46.489" lon="6.07031">
        <ele>1113</ele>
        <time>2021-02-23T13:37:14+01:00</time>
      </trkpt>
      <trkpt lat="46.48865" lon="6.0705">
        <ele>1112</ele>
        <time>2021-02-23T13:37:19+01:00</time>
      </trkpt>
      <trkpt lat="46.48819" lon="6.07052">
        <ele>1110</ele>
        <time>2021-02-23T13:37:24+01:00</time>
      </trkpt>
      <trkpt lat="46.48774" lon="6.07043">
        <ele>1108</ele>
        <time>2021-02-23T13:37:29+01:00</time>
      </trkpt>
      <trkpt lat="46.48743" lon="6.06995">
        <ele>1108</ele>
        <time>2021-02-23T13:37:34+01:00</time>
      </trkpt>
      <trkpt lat="46.48702" lon="6.06963">
        <ele>1109</ele>
        <time>2021-02-23T13:37:39+01:00</time>
      </trkpt>
      <trkpt lat="46.48676" lon="6.0691">
        <ele>1110</ele>
        <time>2021-02-23T13:37:44+01:00</time>
      </trkpt>
      <trkpt lat="46.48664" lon="6.06846">
        <ele>1109</ele>
        <time>2021-02-23T13:37:49+01:00</time>
      </trkpt>
      <trkpt lat="46.48627" lon="6.06833">
        <ele>1113</ele>
        <time>2021-02-23T13:37:54+01:00</time>
      </trkpt>
      <trkpt lat="46.48593" lon="6.0678">
        <ele>1117</ele>
        <time>2021-02-23T13:37:59+01:00</time>
      </trkpt>
      <trkpt lat="46.48567" lon="6.06726">
        <ele>1119</ele>
        <time>2021-02-23T13:38:04+01:00</time>
      </trkpt>
      <trkpt lat="46.48552" lon="6.06664">
        <ele>1121</ele>
        <time>2021-02-23T13:38:09+01:00</time>
      </trkpt>
      <trkpt lat="46.4853" lon="6.06608">
        <ele>1122</ele>
        <time>2021-02-23T13:38:14+01:00</time>
      </trkpt>
      <trkpt lat="46.48512" lon="6.06546">
        <ele>1124</ele>
        <time>2021-02-23T13:38:19+01:00</time>
      </trkpt>
      <trkpt lat="46.4849" lon="6.06489">
        <ele>1125</ele>
        <time>2021-02-23T13:38:24+01:00</time>
      </trkpt>
      <trkpt lat="46.48474" lon="6.06426">
        <ele>1125</ele>
        <time>2021-02-23T13:38:29+01:00</time>
      </trkpt>
      <trkpt lat="46.4846" lon="6.06359">
        <ele>1126</ele>
        <time>2021-02-23T13:38:34+01:00</time>
      </trkpt>
      <trkpt lat="46.48432" lon="6.06337">
        <ele>1127</ele>
        <time>2021-02-23T13:38:39+01:00</time>
      </trkpt>
      <trkpt lat="46.48421" lon="6.06301">
        <ele>1128</ele>
        <time>2021-02-23T13:38:44+01:00</time>
      </trkpt>
      <trkpt lat="46.48429" lon="6.06245">
        <ele>1128</ele>
        <time>2021-02-23T13:38:49+01:00</time>
      </trkpt>
      <trkpt lat="46.48394" lon="6.06178">
        <ele>1122</ele>
        <time>2021-02-23T13:38:54+01:00</time>
      </trkpt>
      <trkpt lat="46.48353" lon="6.06106">
        <ele>1115</ele>
        <time>2021-02-23T13:38:59+01:00</time>
      </trkpt>
      <trkpt lat="46.4833" lon="6.06137">
        <ele>1117</ele>
        <time>2021-02-23T13:39:04+01:00</time>
      </trkpt>
    </trkseg>
  </trk>
</gpx>